Time;durP1;ratioP1;P1;durP2;ratioP2;P2;SDS_P1;SDS_P2;PMS_P1;PMS_P2;Temp;Humidity;BMP_temperature;BMP_pressure;BME280_temperature;BME280_humidity;BME280_pressure;Samples;Min_cycle;Max_cycle;Signal;HPM_P1;HPM_P2
2022/03/22 00:02:09;;;;;;;16.47;3.73;;;;;;;11.83;nan;101589.06;4878798;29;20482;-88
2022/03/22 00:04:39;;;;;;;8.37;3.50;;;;;;;11.84;nan;101599.00;4860711;29;20520;-89
2022/03/22 00:07:09;;;;;;;12.13;3.50;;;;;;;11.86;nan;101591.44;4897685;29;20445;-89
2022/03/22 00:09:37;;;;;;;7.10;3.47;;;;;;;11.80;nan;101586.69;4882158;29;20457;-89
2022/03/22 00:12:07;;;;;;;8.90;4.30;;;;;;;11.79;nan;101595.94;4898959;29;20454;-89
2022/03/22 00:14:36;;;;;;;18.30;4.57;;;;;;;11.75;nan;101584.44;4882665;29;20461;-89
2022/03/22 00:17:24;;;;;;;6.73;3.83;;;;;;;11.78;nan;101597.81;4879547;29;20445;-90
2022/03/22 00:19:58;;;;;;;8.20;4.40;;;;;;;11.72;nan;101584.84;4880796;29;20451;-90
2022/03/22 00:22:27;;;;;;;9.27;4.10;;;;;;;11.86;nan;101602.41;4893285;29;20492;-89
2022/03/22 00:24:55;;;;;;;7.33;3.30;;;;;;;11.79;nan;101599.53;4878951;29;20454;-90
2022/03/22 00:27:23;;;;;;;8.20;3.73;;;;;;;11.68;nan;101586.22;4860401;29;20489;-89
2022/03/22 00:29:51;;;;;;;18.33;4.87;;;;;;;11.76;nan;101610.84;4876377;29;20533;-89
2022/03/22 00:32:20;;;;;;;13.60;4.37;;;;;;;11.74;nan;101600.03;4853637;29;20533;-90
2022/03/22 00:34:48;;;;;;;8.57;4.57;;;;;;;11.76;nan;101603.47;4879144;29;20456;-90
2022/03/22 00:37:16;;;;;;;11.93;4.50;;;;;;;11.77;nan;101602.44;4853678;29;20566;-90
2022/03/22 00:39:45;;;;;;;12.27;4.90;;;;;;;11.81;nan;101605.69;4878304;29;20450;-89
2022/03/22 00:42:14;;;;;;;11.93;4.40;;;;;;;11.81;nan;101597.47;4864301;29;20481;-89
2022/03/22 00:44:42;;;;;;;15.33;5.20;;;;;;;11.84;nan;101599.00;4873112;29;20454;-90
2022/03/22 00:47:10;;;;;;;12.40;5.57;;;;;;;11.84;nan;101591.63;4862476;29;20949;-90
2022/03/22 00:49:37;;;;;;;11.37;5.10;;;;;;;11.88;nan;101605.81;4862902;29;20833;-90
2022/03/22 00:52:05;;;;;;;11.20;5.43;;;;;;;11.81;nan;101586.50;4864900;29;20454;-89
2022/03/22 00:54:35;;;;;;;8.07;4.07;;;;;;;11.92;nan;101601.69;4858939;29;20458;-89
2022/03/22 00:57:07;;;;;;;11.23;3.53;;;;;;;11.92;nan;101601.69;4873215;29;20533;-90
2022/03/22 01:02:23;;;;;;;10.27;4.10;;;;;;;11.86;nan;101588.72;4849246;29;20479;-89
2022/03/22 01:04:50;;;;;;;10.37;3.90;;;;;;;11.98;nan;101606.41;4832205;29;20547;-89
2022/03/22 01:07:18;;;;;;;13.23;4.43;;;;;;;11.99;nan;101594.44;4831996;29;20546;-90
2022/03/22 01:09:48;;;;;;;12.80;4.53;;;;;;;12.03;nan;101606.75;4862124;29;20451;-91
2022/03/22 01:12:17;;;;;;;14.07;4.80;;;;;;;12.07;nan;101605.34;4845193;29;20503;-89
2022/03/22 01:14:45;;;;;;;11.97;4.97;;;;;;;12.04;nan;101598.34;4859828;29;20981;-89
2022/03/22 01:17:13;;;;;;;15.00;4.20;;;;;;;12.09;nan;101609.59;4854203;29;20457;-89
2022/03/22 01:19:40;;;;;;;11.93;5.43;;;;;;;12.08;nan;101593.34;4884964;29;20450;-89
2022/03/22 01:22:08;;;;;;;10.17;4.90;;;;;;;12.10;nan;101592.13;4881243;29;21024;-90
2022/03/22 01:24:36;;;;;;;11.83;5.27;;;;;;;12.09;nan;101578.63;4881566;29;20462;-89
2022/03/22 01:27:04;;;;;;;18.53;4.83;;;;;;;12.15;nan;101593.44;4900040;29;21012;-89
2022/03/22 01:29:33;;;;;;;10.03;4.93;;;;;;;12.15;nan;101582.50;4884961;29;20450;-91
2022/03/22 01:32:01;;;;;;;8.43;4.60;;;;;;;12.09;nan;101581.34;4899914;29;20476;-91
2022/03/22 01:34:30;;;;;;;15.23;5.40;;;;;;;12.18;nan;101584.88;4881777;29;20453;-90
2022/03/22 01:36:58;;;;;;;17.60;5.20;;;;;;;12.21;nan;101584.50;4898843;29;20453;-91
2022/03/22 01:39:26;;;;;;;14.40;5.50;;;;;;;12.20;nan;101586.41;4885405;29;20454;-91
2022/03/22 01:41:54;;;;;;;9.37;4.10;;;;;;;12.18;nan;101582.97;4900516;29;20477;-91
2022/03/22 01:44:21;;;;;;;11.63;6.10;;;;;;;12.21;nan;101585.34;4896436;29;20461;-91
2022/03/22 01:46:50;;;;;;;9.33;4.13;;;;;;;12.21;nan;101582.63;4885090;29;20452;-91
2022/03/22 01:49:19;;;;;;;11.57;4.27;;;;;;;12.24;nan;101574.03;4884891;29;20973;-91
2022/03/22 01:51:48;;;;;;;12.97;4.70;;;;;;;12.25;nan;101578.47;4846705;29;20464;-90
2022/03/22 01:54:17;;;;;;;9.43;4.30;;;;;;;12.12;nan;101548.13;4816040;29;20464;-91
2022/03/22 01:56:44;;;;;;;16.43;4.13;;;;;;;12.22;nan;101570.63;4813517;29;20460;-90
2022/03/22 01:59:12;;;;;;;10.87;4.30;;;;;;;12.15;nan;101553.19;4813370;29;20477;-91
2022/03/22 02:07:15;;;;;;;13.03;4.50;;;;;;;12.33;nan;101555.59;4835600;29;20448;-91
2022/03/22 02:09:42;;;;;;;13.90;4.50;;;;;;;12.34;nan;101546.34;4817727;29;20462;-91
2022/03/22 02:12:10;;;;;;;9.93;4.50;;;;;;;12.34;nan;101541.72;4879571;29;20446;-90
2022/03/22 02:14:38;;;;;;;20.07;5.10;;;;;;;12.36;nan;101531.41;4884750;29;20453;-90
2022/03/22 02:17:09;;;;;;;15.63;5.43;;;;;;;12.39;nan;101541.16;4883568;29;20457;-90
2022/03/22 02:19:39;;;;;;;14.03;4.77;;;;;;;12.42;nan;101549.88;4865519;29;20443;-90
2022/03/22 02:22:13;;;;;;;8.47;5.10;;;;;;;12.37;nan;101538.59;4865846;29;20497;-89
2022/03/22 02:24:41;;;;;;;9.53;4.70;;;;;;;12.38;nan;101536.72;4882372;29;20441;-90
2022/03/22 02:27:10;;;;;;;20.30;5.70;;;;;;;12.40;nan;101534.66;4877316;29;20465;-89
2022/03/22 02:29:38;;;;;;;10.00;5.07;;;;;;;12.44;nan;101542.31;4899689;29;20936;-90
2022/03/22 02:32:08;;;;;;;8.97;4.60;;;;;;;12.46;nan;101536.66;4899026;29;20474;-90
2022/03/22 02:34:37;;;;;;;10.80;4.83;;;;;;;12.48;nan;101548.28;4880705;29;20459;-90
2022/03/22 02:37:06;;;;;;;7.53;4.10;;;;;;;12.50;nan;101539.88;4864995;29;20470;-90
2022/03/22 02:39:35;;;;;;;12.77;4.60;;;;;;;12.48;nan;101536.47;4891999;29;20457;-90
2022/03/22 02:42:03;;;;;;;10.90;4.50;;;;;;;12.52;nan;101537.78;4884218;29;20961;-91
2022/03/22 02:44:32;;;;;;;12.43;4.33;;;;;;;12.51;nan;101536.09;4850110;29;20455;-91
2022/03/22 02:47:01;;;;;;;12.43;4.90;;;;;;;12.53;nan;101544.97;4865343;29;20455;-90
2022/03/22 02:49:34;;;;;;;9.00;4.20;;;;;;;12.52;nan;101532.28;4850237;29;20827;-91
2022/03/22 02:52:03;;;;;;;9.27;4.43;;;;;;;12.43;nan;101518.69;4865864;29;20479;-90
2022/03/22 02:54:31;;;;;;;10.10;4.67;;;;;;;12.52;nan;101532.28;4865247;29;20458;-90
2022/03/22 02:56:59;;;;;;;18.50;5.40;;;;;;;12.53;nan;101544.97;4859780;29;20485;-91
2022/03/22 02:59:27;;;;;;;16.67;5.13;;;;;;;12.51;nan;101536.09;4850222;29;20453;-90
2022/03/22 03:01:57;;;;;;;11.53;5.10;;;;;;;12.49;nan;101530.81;4865105;29;20486;-90
2022/03/22 03:04:27;;;;;;;10.20;5.00;;;;;;;12.53;nan;101540.31;4868727;29;20941;-90
2022/03/22 03:06:54;;;;;;;13.03;4.30;;;;;;;12.51;nan;101534.19;4864253;29;20454;-90
2022/03/22 03:09:22;;;;;;;15.20;4.50;;;;;;;12.56;nan;101533.63;4882119;29;21011;-91
2022/03/22 03:11:50;;;;;;;14.17;4.43;;;;;;;12.53;nan;101534.84;4867895;29;20510;-90
2022/03/22 03:17:15;;;;;;;22.90;5.20;;;;;;;12.58;nan;101526.91;4884450;29;20513;-92
2022/03/22 03:19:43;;;;;;;9.47;4.80;;;;;;;12.58;nan;101520.56;4898765;29;20457;-92
2022/03/22 03:22:13;;;;;;;10.50;4.73;;;;;;;12.59;nan;101522.28;4867298;29;20493;-91
2022/03/22 03:24:40;;;;;;;10.53;4.30;;;;;;;12.63;nan;101529.09;4849639;29;20459;-92
2022/03/22 03:27:11;;;;;;;9.50;4.50;;;;;;;12.59;nan;101514.06;4867354;29;20454;-91
2022/03/22 03:29:38;;;;;;;9.70;5.47;;;;;;;12.64;nan;101526.19;4867319;29;20450;-91
2022/03/22 03:32:06;;;;;;;12.57;5.07;;;;;;;12.63;nan;101518.13;4879452;29;20462;-91
2022/03/22 03:34:34;;;;;;;12.87;4.57;;;;;;;12.55;nan;101499.88;4864593;29;20454;-91
2022/03/22 03:37:02;;;;;;;13.90;5.37;;;;;;;12.60;nan;101507.53;4849586;29;20450;-92
2022/03/22 03:39:30;;;;;;;14.80;4.43;;;;;;;12.70;nan;101521.84;4849303;29;20462;-91
2022/03/22 03:42:01;;;;;;;10.93;5.33;;;;;;;12.67;nan;101509.34;4849246;29;20494;-91
2022/03/22 03:47:22;;;;;;;12.30;5.90;;;;;;;12.68;nan;101491.00;4868389;29;20454;-91
2022/03/22 03:49:52;;;;;;;8.23;4.07;;;;;;;12.72;nan;101511.50;4898498;29;20453;-91
2022/03/22 03:52:22;;;;;;;9.00;4.43;;;;;;;12.71;nan;101510.66;4881287;29;21008;-91
2022/03/22 03:54:50;;;;;;;7.70;4.70;;;;;;;12.64;nan;101492.41;4864386;29;20442;-92
2022/03/22 03:57:19;;;;;;;6.20;4.20;;;;;;;12.65;nan;101494.13;4908353;29;20466;-91
2022/03/22 03:59:47;;;;;;;7.57;3.87;;;;;;;12.67;nan;101497.53;4849117;29;20443;-91
2022/03/22 04:02:16;;;;;;;16.50;5.37;;;;;;;12.64;nan;101493.25;4896525;29;20482;-91
2022/03/22 04:04:44;;;;;;;18.13;7.40;;;;;;;12.68;nan;101502.81;4865364;29;20455;-91
2022/03/22 04:07:13;;;;;;;12.13;4.30;;;;;;;12.57;nan;101469.50;4864615;29;20525;-91
2022/03/22 04:09:40;;;;;;;11.17;5.00;;;;;;;12.64;nan;101492.41;4882585;29;20441;-91
2022/03/22 04:12:08;;;;;;;12.60;4.40;;;;;;;12.62;nan;101492.59;4897986;29;20967;-91
2022/03/22 04:14:36;;;;;;;7.00;4.43;;;;;;;12.61;nan;101493.63;4926069;29;20559;-89
2022/03/22 04:17:08;;;;;;;9.10;4.43;;;;;;;12.61;nan;101498.28;4906729;29;20473;-90
2022/03/22 04:19:45;;;;;;;12.93;4.73;;;;;;;12.62;nan;101494.50;4884744;29;20514;-91
2022/03/22 04:22:27;;;;;;;10.73;4.30;;;;;;;12.58;nan;101488.53;4897521;29;20493;-91
2022/03/22 04:24:55;;;;;;;9.13;4.10;;;;;;;12.55;nan;101488.91;4882520;29;20442;-91
2022/03/22 04:32:56;;;;;;;14.67;4.90;;;;;;;12.52;nan;101491.16;4896493;29;21043;-91
2022/03/22 04:35:27;;;;;;;8.90;4.83;;;;;;;12.47;nan;101485.41;4863229;29;20450;-91
2022/03/22 04:37:56;;;;;;;8.10;4.43;;;;;;;12.49;nan;101486.94;4893851;29;20454;-91
2022/03/22 04:40:25;;;;;;;11.27;4.37;;;;;;;12.37;nan;101472.81;4878751;29;20490;-91
2022/03/22 04:42:53;;;;;;;9.90;4.53;;;;;;;12.41;nan;101487.84;4866551;29;20477;-90
2022/03/22 04:45:21;;;;;;;11.90;4.10;;;;;;;12.43;nan;101494.00;4863293;29;20446;-91
2022/03/22 04:47:50;;;;;;;10.07;4.60;;;;;;;12.42;nan;101496.94;4863581;29;20465;-91
2022/03/22 04:50:17;;;;;;;15.07;4.53;;;;;;;12.38;nan;101496.44;4862076;29;20458;-91
2022/03/22 04:58:18;;;;;;;8.47;3.87;;;;;;;12.28;nan;101500.50;4865364;29;20455;-90
2022/03/22 05:00:47;;;;;;;6.70;3.90;;;;;;;12.28;nan;101495.88;4863325;29;20454;-91
2022/03/22 05:03:15;;;;;;;7.20;4.67;;;;;;;12.28;nan;101504.09;4856648;29;20629;-91
2022/03/22 05:08:32;;;;;;;10.07;4.00;;;;;;;12.26;nan;101500.69;4878248;29;20522;-92
2022/03/22 05:11:00;;;;;;;15.67;3.80;;;;;;;12.24;nan;101491.81;4867071;29;20461;-91
2022/03/22 05:13:28;;;;;;;6.80;3.90;;;;;;;12.09;nan;101471.75;4866255;29;20505;-91
2022/03/22 05:15:55;;;;;;;7.23;3.93;;;;;;;12.19;nan;101497.00;4866433;29;20938;-91
2022/03/22 05:18:23;;;;;;;9.80;4.50;;;;;;;12.19;nan;101493.41;4865859;29;20458;-91
2022/03/22 05:20:51;;;;;;;13.57;4.30;;;;;;;12.21;nan;101502.28;4878813;29;20490;-91
2022/03/22 05:23:19;;;;;;;13.07;4.43;;;;;;;12.20;nan;101492.34;4865863;29;20484;-91
2022/03/22 05:25:48;;;;;;;10.70;5.80;;;;;;;12.23;nan;101501.06;4880814;29;20457;-91
2022/03/22 05:28:16;;;;;;;7.33;3.80;;;;;;;12.21;nan;101500.41;4881861;29;20450;-91
2022/03/22 05:30:43;;;;;;;11.00;4.60;;;;;;;12.22;nan;101502.09;4866427;29;20823;-90
2022/03/22 05:33:12;;;;;;;14.90;4.70;;;;;;;12.20;nan;101508.81;4881163;29;20480;-91
2022/03/22 05:35:41;;;;;;;11.13;5.10;;;;;;;12.17;nan;101503.69;4896979;29;20512;-90
2022/03/22 05:38:09;;;;;;;17.63;4.40;;;;;;;12.14;nan;101507.66;4864545;29;20462;-91
2022/03/22 05:40:38;;;;;;;9.23;4.10;;;;;;;12.08;nan;101501.03;4851343;29;20457;-91
2022/03/22 05:43:06;;;;;;;8.40;4.30;;;;;;;12.06;nan;101510.47;4874018;29;20567;-90
2022/03/22 05:45:34;;;;;;;20.20;4.13;;;;;;;12.04;nan;101501.59;4869561;29;20817;-91
2022/03/22 05:48:01;;;;;;;11.40;3.90;;;;;;;12.01;nan;101510.19;4869879;29;20449;-90
2022/03/22 05:50:30;;;;;;;10.17;4.17;;;;;;;11.97;nan;101503.34;4869156;29;20449;-91
2022/03/22 05:52:57;;;;;;;11.17;3.90;;;;;;;11.95;nan;101508.16;4884862;29;20458;-89
2022/03/22 05:55:25;;;;;;;8.70;3.40;;;;;;;11.91;nan;101515.06;4884187;29;20787;-91
2022/03/22 05:57:53;;;;;;;9.00;4.37;;;;;;;11.83;nan;101509.63;4884723;29;20453;-90
2022/03/22 06:00:21;;;;;;;9.03;4.47;;;;;;;11.80;nan;101510.00;4869236;29;20453;-91
2022/03/22 06:02:49;;;;;;;15.93;4.37;;;;;;;11.74;nan;101504.19;4880753;29;20482;-91
2022/03/22 06:05:19;;;;;;;16.20;4.27;;;;;;;11.75;nan;101508.63;4866720;29;20969;-91
2022/03/22 06:07:47;;;;;;;13.20;4.20;;;;;;;11.70;nan;101505.59;4899138;29;20521;-91
2022/03/22 06:10:15;;;;;;;13.67;4.97;;;;;;;11.67;nan;101516.91;4884699;29;20493;-90
2022/03/22 06:12:47;;;;;;;18.13;4.63;;;;;;;11.55;nan;101498.34;4883206;29;20454;-91
2022/03/22 06:15:18;;;;;;;15.20;5.23;;;;;;;11.59;nan;101508.75;4884724;29;20441;-88
2022/03/22 06:17:51;;;;;;;12.57;4.90;;;;;;;11.60;nan;101515.94;4895161;29;20463;-91
2022/03/22 06:20:20;;;;;;;19.10;6.30;;;;;;;11.61;nan;101517.63;4869063;29;20941;-91
2022/03/22 06:22:48;;;;;;;18.23;5.20;;;;;;;11.47;nan;101493.78;4865305;29;20501;-90
2022/03/22 06:25:16;;;;;;;19.10;5.60;;;;;;;11.54;nan;101519.41;4887356;29;20464;-91
2022/03/22 06:27:49;;;;;;;17.13;6.20;;;;;;;11.52;nan;101518.75;4866014;29;20976;-90
2022/03/22 06:30:17;;;;;;;15.53;5.53;;;;;;;11.52;nan;101520.63;4896515;29;20443;-91
2022/03/22 06:32:56;;;;;;;11.70;5.40;;;;;;;11.48;nan;101503.72;4882274;29;20509;-92
2022/03/22 06:35:48;;;;;;;12.63;5.40;;;;;;;11.54;nan;101527.63;4899471;29;20457;-91
2022/03/22 06:38:16;;;;;;;20.67;5.50;;;;;;;11.53;nan;101533.28;4892200;29;20828;-91
2022/03/22 06:40:44;;;;;;;17.77;6.33;;;;;;;11.53;nan;101539.63;4884439;29;20453;-91
2022/03/22 06:43:14;;;;;;;12.20;5.37;;;;;;;11.52;nan;101537.91;4879032;29;20504;-91
2022/03/22 06:45:46;;;;;;;13.03;5.20;;;;;;;11.45;nan;101525.97;4883731;29;20462;-91
2022/03/22 06:48:15;;;;;;;8.77;4.47;;;;;;;11.48;nan;101538.44;4899356;29;20454;-90
2022/03/22 06:50:44;;;;;;;11.73;5.20;;;;;;;11.49;nan;101546.47;4864904;29;20828;-91
2022/03/22 06:53:12;;;;;;;15.23;5.77;;;;;;;11.47;nan;101537.59;4866551;29;20446;-90
2022/03/22 06:55:41;;;;;;;21.33;5.87;;;;;;;11.41;nan;101532.81;4868719;29;20453;-91
2022/03/22 06:58:09;;;;;;;20.63;6.23;;;;;;;11.45;nan;101550.59;4882943;29;20454;-90
2022/03/22 07:00:37;;;;;;;17.93;6.20;;;;;;;11.37;nan;101531.47;4868712;29;20457;-91
2022/03/22 07:03:08;;;;;;;23.27;5.40;;;;;;;11.51;nan;101560.84;4882491;29;20503;-91
2022/03/22 07:05:37;;;;;;;13.60;5.20;;;;;;;11.53;nan;101553.31;4883740;29;20450;-91
2022/03/22 07:08:05;;;;;;;15.93;5.67;;;;;;;11.55;nan;101551.22;4879402;29;20465;-92
2022/03/22 07:10:33;;;;;;;20.53;5.80;;;;;;;11.55;nan;101551.22;4898949;29;20457;-91
2022/03/22 07:13:05;;;;;;;42.73;20.30;;;;;;;11.50;nan;101537.22;4865026;29;20462;-91
2022/03/22 07:15:36;;;;;;;26.93;10.93;;;;;;;11.62;nan;101551.34;4898578;29;20458;-91
2022/03/22 07:18:06;;;;;;;25.73;8.10;;;;;;;11.57;nan;101557.34;4865797;29;20464;-91
2022/03/22 07:20:36;;;;;;;34.93;7.70;;;;;;;11.64;nan;101552.03;4892244;29;20450;-91
2022/03/22 07:23:04;;;;;;;19.10;6.00;;;;;;;11.68;nan;101556.09;4898599;29;20502;-89
2022/03/22 07:25:33;;;;;;;28.07;6.30;;;;;;;11.82;nan;101573.66;4879882;29;20950;-89
2022/03/22 07:28:01;;;;;;;25.57;7.23;;;;;;;11.85;nan;101568.69;4880176;29;20864;-89
2022/03/22 07:30:29;;;;;;;19.27;6.17;;;;;;;11.95;nan;101576.66;4864707;29;20965;-86
2022/03/22 07:32:57;;;;;;;17.40;6.90;;;;;;;12.02;nan;101575.75;4878787;29;20474;-86
2022/03/22 07:35:26;;;;;;;23.53;7.77;;;;;;;12.10;nan;101581.19;4879813;29;20477;-90
2022/03/22 07:37:58;;;;;;;9.80;5.13;;;;;;;12.17;nan;101570.31;4864619;29;20462;-90
2022/03/22 07:40:26;;;;;;;14.40;5.30;;;;;;;12.29;nan;101588.03;4864186;29;20458;-90
2022/03/22 07:42:54;;;;;;;15.93;6.50;;;;;;;12.34;nan;101580.09;4880236;29;20920;-91
2022/03/22 07:45:22;;;;;;;14.10;6.03;;;;;;;12.44;nan;101591.66;4882178;29;20466;-90
2022/03/22 07:47:49;;;;;;;16.20;6.23;;;;;;;12.53;nan;101575.97;4881872;29;20461;-91
2022/03/22 07:53:07;;;;;;;14.77;7.60;;;;;;;12.76;nan;101584.16;4897228;29;20458;-91
2022/03/22 07:55:39;;;;;;;21.20;7.77;;;;;;;12.84;nan;101580.47;4897010;29;20868;-90
2022/03/22 07:58:07;;;;;;;14.43;6.77;;;;;;;12.98;nan;101580.47;4880572;29;20852;-90
2022/03/22 08:00:38;;;;;;;13.90;6.73;;;;;;;13.11;nan;101594.38;4881842;29;20449;-91
2022/03/22 08:03:09;;;;;;;15.47;6.97;;;;;;;13.21;nan;101587.78;4881835;29;20473;-91
2022/03/22 08:05:40;;;;;;;17.30;8.17;;;;;;;13.28;nan;101583.22;4881345;29;20433;-91
2022/03/22 08:08:09;;;;;;;15.90;7.10;;;;;;;13.32;nan;101585.41;4893920;29;20446;-90
2022/03/22 08:10:56;;;;;;;11.87;7.00;;;;;;;13.51;nan;101597.69;4885555;29;20434;-89
2022/03/22 08:13:29;;;;;;;13.63;7.00;;;;;;;13.63;nan;101600.81;4900679;29;20448;-90
2022/03/22 08:15:56;;;;;;;12.63;6.73;;;;;;;13.73;nan;101604.94;4911959;29;20936;-90
2022/03/22 08:18:38;;;;;;;11.53;5.23;;;;;;;13.88;nan;101598.53;4882275;29;21023;-91
2022/03/22 08:21:07;;;;;;;12.23;5.47;;;;;;;14.07;nan;101601.50;4848579;29;20450;-91
2022/03/22 08:23:35;;;;;;;9.80;5.90;;;;;;;14.14;nan;101596.94;4881765;29;20485;-91
2022/03/22 08:26:02;;;;;;;8.93;5.40;;;;;;;14.37;nan;101593.97;4866580;29;20462;-90
2022/03/22 08:28:34;;;;;;;9.47;4.90;;;;;;;14.45;nan;101598.50;4881401;29;20466;-91
2022/03/22 08:31:02;;;;;;;8.87;5.00;;;;;;;14.49;nan;101602.56;4897106;29;20494;-90
2022/03/22 08:33:33;;;;;;;9.37;5.43;;;;;;;14.63;nan;101614.50;4877858;29;20488;-93
2022/03/22 08:36:02;;;;;;;8.47;4.90;;;;;;;14.63;nan;101584.25;4882303;29;20458;-90
2022/03/22 08:38:30;;;;;;;10.93;5.53;;;;;;;14.76;nan;101587.13;4879789;29;20454;-89
2022/03/22 08:40:58;;;;;;;10.67;5.60;;;;;;;14.91;nan;101601.63;4881444;29;20953;-91
2022/03/22 08:43:27;;;;;;;11.60;4.97;;;;;;;14.98;nan;101598.91;4881758;29;20491;-90
2022/03/22 08:45:55;;;;;;;14.10;5.77;;;;;;;14.99;nan;101606.97;4881156;29;20457;-90
2022/03/22 08:48:23;;;;;;;11.23;4.97;;;;;;;15.02;nan;101600.19;4880690;29;20458;-90
2022/03/22 08:51:28;;;;;;;13.43;5.00;;;;;;;15.11;nan;101605.34;4881441;29;20458;-96
2022/03/22 08:53:57;;;;;;;18.00;5.50;;;;;;;15.09;nan;101592.84;4894959;29;20441;-92
2022/03/22 08:56:32;;;;;;;16.73;6.23;;;;;;;15.20;nan;101609.63;4866352;29;20458;-89
2022/03/22 08:59:17;;;;;;;16.23;5.63;;;;;;;15.15;nan;101590.13;4894382;29;20456;-92
2022/03/22 09:01:48;;;;;;;15.27;5.30;;;;;;;15.30;nan;101613.94;4876782;29;20441;-91
2022/03/22 09:07:06;;;;;;;15.50;5.90;;;;;;;15.42;nan;101607.63;4897542;29;20869;-93
2022/03/22 09:09:34;;;;;;;18.47;6.67;;;;;;;15.48;nan;101594.94;4881866;29;20937;-88
2022/03/22 09:12:04;;;;;;;14.37;5.07;;;;;;;15.58;nan;101597.38;4865836;29;21008;-90
2022/03/22 09:14:32;;;;;;;15.70;5.10;;;;;;;15.74;nan;101605.28;4899714;29;20535;-90
2022/03/22 09:17:01;;;;;;;30.20;8.57;;;;;;;15.83;nan;101595.75;4885330;29;20457;-93
2022/03/22 09:19:29;;;;;;;28.00;7.60;;;;;;;16.00;nan;101604.47;4893642;29;20456;-92
2022/03/22 09:22:16;;;;;;;26.60;7.73;;;;;;;16.12;nan;101600.06;4872034;29;20461;-92
2022/03/22 09:24:44;;;;;;;12.50;5.03;;;;;;;16.18;nan;101596.44;4896928;29;20481;-91
2022/03/22 09:27:13;;;;;;;15.73;4.77;;;;;;;16.23;nan;101588.41;4900015;29;20453;-92
2022/03/22 09:29:41;;;;;;;14.10;4.50;;;;;;;16.36;nan;101593.06;4881353;29;20470;-92
2022/03/22 09:32:09;;;;;;;19.07;5.73;;;;;;;16.48;nan;101597.78;4882849;29;20505;-91
2022/03/22 09:34:40;;;;;;;15.23;3.10;;;;;;;16.53;nan;101608.19;4865941;29;20446;-92
2022/03/22 09:37:16;;;;;;;16.20;2.90;;;;;;;16.51;nan;101583.56;4869572;29;20449;-91
2022/03/22 09:39:47;;;;;;;19.40;4.33;;;;;;;16.66;nan;101605.44;4916521;29;20457;-92
2022/03/22 09:42:21;;;;;;;16.80;2.73;;;;;;;16.85;nan;101603.72;4885924;29;20441;-91
2022/03/22 09:44:49;;;;;;;12.27;3.60;;;;;;;17.08;nan;101612.41;4902054;29;21055;-92
2022/03/22 09:47:20;;;;;;;8.00;2.47;;;;;;;17.31;nan;101608.31;4877301;29;20505;-91
2022/03/22 09:49:47;;;;;;;20.00;2.73;;;;;;;17.55;nan;101607.56;4879320;29;20468;-90
2022/03/22 09:52:16;;;;;;;9.30;2.07;;;;;;;17.80;nan;101611.34;4888182;29;20482;-92
2022/03/22 09:54:43;;;;;;;13.50;2.60;;;;;;;17.98;nan;101607.81;4883685;29;20454;-91
2022/03/22 09:57:11;;;;;;;13.70;3.10;;;;;;;18.25;nan;101619.59;4887944;29;20453;-92
2022/03/22 09:59:46;;;;;;;20.77;3.27;;;;;;;18.44;nan;101624.13;4870899;29;20454;-92
2022/03/22 10:02:26;;;;;;;19.63;2.40;;;;;;;18.62;nan;101615.94;4899690;29;20466;-92
2022/03/22 10:05:06;;;;;;;10.50;2.43;;;;;;;18.66;nan;101619.09;4886279;29;20996;-92
2022/03/22 10:07:35;;;;;;;16.27;3.60;;;;;;;18.77;nan;101620.28;4881598;29;20502;-91
2022/03/22 10:10:07;;;;;;;15.87;3.07;;;;;;;18.83;nan;101614.69;4866027;29;20470;-91
2022/03/22 10:12:37;;;;;;;13.00;2.33;;;;;;;18.92;nan;101618.00;4884807;29;20473;-92
2022/03/22 10:15:13;;;;;;;11.70;2.83;;;;;;;19.01;nan;101611.09;4869972;29;20456;-91
2022/03/22 10:17:46;;;;;;;19.30;3.73;;;;;;;19.04;nan;101620.88;4866176;29;20462;-92
2022/03/22 10:20:36;;;;;;;15.70;2.67;;;;;;;19.14;nan;101619.28;4870794;29;20466;-93
2022/03/22 10:23:10;;;;;;;8.80;1.20;;;;;;;19.12;nan;101610.34;4898311;29;20454;-92
2022/03/22 10:26:15;;;;;;;14.63;2.43;;;;;;;19.25;nan;101617.66;4884991;29;20466;-93
2022/03/22 10:28:55;;;;;;;9.80;2.13;;;;;;;19.38;nan;101625.00;4899602;29;20449;-93
2022/03/22 10:31:34;;;;;;;13.40;3.30;;;;;;;19.45;nan;101617.44;4897409;29;20461;-93
2022/03/22 10:34:12;;;;;;;15.70;5.27;;;;;;;19.45;nan;101617.44;4900293;29;20964;-94
2022/03/22 10:37:28;;;;;;;13.57;4.23;;;;;;;19.45;nan;101617.44;4899657;29;20516;-94
2022/03/22 10:40:03;;;;;;;11.77;3.27;;;;;;;19.62;nan;101613.03;4898978;29;20580;-94
2022/03/22 10:42:32;;;;;;;16.50;5.17;;;;;;;19.81;nan;101611.91;4869077;29;20466;-93
2022/03/22 10:49:05;;;;;;;8.60;2.77;;;;;;;19.69;nan;101619.31;4900829;29;20445;-94
2022/03/22 10:51:39;;;;;;;15.10;2.80;;;;;;;19.63;nan;101609.13;4890443;29;20995;-93
2022/03/22 10:54:18;;;;;;;9.27;2.63;;;;;;;19.71;nan;101622.69;4866563;29;20461;-93
2022/03/22 10:56:58;;;;;;;6.23;1.90;;;;;;;19.82;nan;101613.56;4871697;29;20470;-94
2022/03/22 10:59:28;;;;;;;14.00;1.63;;;;;;;20.03;nan;101612.22;4867817;29;20975;-93
2022/03/22 11:01:58;;;;;;;5.97;1.57;;;;;;;20.15;nan;101612.28;4865032;29;20449;-93
2022/03/22 11:04:38;;;;;;;8.10;0.97;;;;;;;20.32;nan;101618.84;4898992;29;20537;-93
2022/03/22 11:07:16;;;;;;;6.87;1.40;;;;;;;20.58;nan;101610.16;4899356;29;20453;-93
2022/03/22 11:10:18;;;;;;;6.30;0.90;;;;;;;20.88;nan;101606.41;4899451;29;20452;-93
2022/03/22 11:12:58;;;;;;;3.53;0.67;;;;;;;21.12;nan;101605.34;4899306;29;20476;-93
2022/03/22 11:16:01;;;;;;;3.73;0.93;;;;;;;21.22;nan;101602.81;4897272;29;20464;-94
2022/03/22 11:18:31;;;;;;;4.13;0.77;;;;;;;21.25;nan;101605.09;4894357;29;20528;-93
2022/03/22 11:21:03;;;;;;;7.67;0.80;;;;;;;21.20;nan;101591.09;4868096;29;20466;-93
2022/03/22 11:23:50;;;;;;;3.13;0.90;;;;;;;21.28;nan;101603.78;4868347;29;20828;-94
2022/03/22 11:29:45;;;;;;;5.77;1.33;;;;;;;21.28;nan;101595.44;4892432;29;20462;-94
2022/03/22 11:35:12;;;;;;;6.93;1.20;;;;;;;21.31;nan;101579.13;4885224;29;20458;-94
2022/03/22 11:37:42;;;;;;;9.07;1.07;;;;;;;21.42;nan;101596.00;4886307;29;20521;-93
2022/03/22 11:43:44;;;;;;;5.63;0.77;;;;;;;21.56;nan;101589.91;4881014;29;20447;-94
2022/03/22 11:46:17;;;;;;;4.63;0.97;;;;;;;21.62;nan;101593.66;4879759;29;20451;-94
2022/03/22 11:48:54;;;;;;;6.57;1.07;;;;;;;21.80;nan;101584.28;4913122;29;20529;-94
2022/03/22 11:58:57;;;;;;;2.70;0.60;;;;;;;22.16;nan;101586.69;4894908;29;20528;-94
2022/03/22 12:01:40;;;;;;;4.17;0.73;;;;;;;22.36;nan;101587.06;4913409;29;20456;-93
2022/03/22 12:08:28;;;;;;;4.40;0.73;;;;;;;22.85;nan;101579.00;4895851;29;20428;-93
2022/03/22 12:10:58;;;;;;;2.93;0.63;;;;;;;22.94;nan;101583.03;4904446;29;20436;-94
2022/03/22 12:13:30;;;;;;;2.23;0.63;;;;;;;22.89;nan;101584.91;4921039;29;20494;-94
2022/03/22 12:16:00;;;;;;;6.00;0.97;;;;;;;22.74;nan;101572.38;4880392;29;20532;-93
2022/03/22 12:18:47;;;;;;;6.30;0.70;;;;;;;22.80;nan;101580.84;4883416;29;20449;-95
2022/03/22 12:28:54;;;;;;;3.70;0.90;;;;;;;23.47;nan;101575.16;4898668;29;20432;-93
2022/03/22 12:32:09;;;;;;;3.90;0.80;;;;;;;23.55;nan;101574.69;4897596;29;20450;-94
2022/03/22 12:34:39;;;;;;;4.33;0.90;;;;;;;23.60;nan;101566.41;4854413;29;20967;-95
2022/03/22 12:37:11;;;;;;;6.60;1.17;;;;;;;23.66;nan;101570.94;4836070;29;20822;-93
2022/03/22 12:39:55;;;;;;;7.87;0.63;;;;;;;23.67;nan;101564.25;4845833;29;20867;-94
2022/03/22 12:42:33;;;;;;;7.10;0.77;;;;;;;23.59;nan;101565.56;4861004;29;20447;-93
2022/03/22 12:45:06;;;;;;;2.30;0.50;;;;;;;23.51;nan;101557.59;4830661;29;20562;-93
2022/03/22 12:47:56;;;;;;;2.57;0.50;;;;;;;23.42;nan;101556.38;4826486;29;20464;-93
2022/03/22 12:53:46;;;;;;;7.33;1.17;;;;;;;23.30;nan;101553.69;4858238;29;20455;-93
2022/03/22 12:56:20;;;;;;;3.77;0.93;;;;;;;23.38;nan;101539.31;4841904;29;20448;-94
2022/03/22 12:59:03;;;;;;;2.50;0.50;;;;;;;23.49;nan;101539.41;4850231;29;20455;-93
2022/03/22 13:01:43;;;;;;;3.93;1.07;;;;;;;23.65;nan;101533.81;4827124;29;20840;-93
2022/03/22 13:04:29;;;;;;;2.50;0.77;;;;;;;23.83;nan;101524.25;4822704;29;20494;-93
2022/03/22 13:07:08;;;;;;;5.23;1.10;;;;;;;24.07;nan;101531.16;4811498;29;20832;-93